Time;durP1;ratioP1;P1;durP2;ratioP2;P2;SDS_P1;SDS_P2;PMS_P1;PMS_P2;Temp;Humidity;BMP_temperature;BMP_pressure;BME280_temperature;BME280_humidity;BME280_pressure;Samples;Min_cycle;Max_cycle;Signal;HPM_P1;HPM_P2
2023/12/23 00:00:21;;;;;;;0.30;0.30;;;1.90;99.90;;;;;;4373888;32;20077;-71
2023/12/23 00:02:47;;;;;;;0.30;0.30;;;2.00;99.90;;;;;;4375135;32;20094;-71
2023/12/23 00:05:12;;;;;;;0.30;0.30;;;2.00;99.90;;;;;;4377151;32;20129;-70
2023/12/23 00:07:38;;;;;;;0.30;0.30;;;2.00;99.90;;;;;;4377039;32;20073;-71
2023/12/23 00:10:03;;;;;;;0.40;0.40;;;2.00;99.90;;;;;;4377195;32;20078;-70
2023/12/23 00:12:29;;;;;;;0.30;0.30;;;2.00;99.90;;;;;;4375493;32;20450;-70
2023/12/23 00:14:55;;;;;;;0.30;0.30;;;2.00;99.90;;;;;;4376466;32;20078;-70
2023/12/23 00:17:21;;;;;;;0.30;0.30;;;2.00;99.90;;;;;;4377825;32;20075;-70
2023/12/23 00:19:46;;;;;;;0.40;0.40;;;2.10;99.90;;;;;;4375759;32;20091;-70
2023/12/23 00:22:12;;;;;;;0.30;0.30;;;2.10;99.90;;;;;;4376553;32;20066;-70
2023/12/23 00:24:37;;;;;;;0.30;0.30;;;2.20;99.90;;;;;;4376422;32;20117;-74
2023/12/23 00:27:03;;;;;;;0.40;0.40;;;2.10;99.90;;;;;;4373379;32;20099;-72
2023/12/23 00:29:29;;;;;;;1.05;0.52;;;2.20;99.90;;;;;;4373874;32;20129;-72
2023/12/23 00:31:56;;;;;;;0.35;0.35;;;2.20;99.90;;;;;;4372843;32;20144;-71
2023/12/23 00:34:22;;;;;;;0.30;0.30;;;2.20;99.90;;;;;;4376382;32;20124;-71
2023/12/23 00:36:47;;;;;;;0.32;0.32;;;2.20;99.90;;;;;;4375440;32;20086;-72
2023/12/23 00:39:15;;;;;;;0.30;0.30;;;2.30;99.90;;;;;;4374994;32;20186;-72
2023/12/23 00:41:41;;;;;;;0.37;0.37;;;2.30;99.90;;;;;;4373912;32;20090;-73
2023/12/23 00:44:12;;;;;;;0.30;0.30;;;2.30;99.90;;;;;;4374501;32;20093;-71
2023/12/23 00:46:38;;;;;;;0.30;0.30;;;2.40;99.90;;;;;;4372748;32;20082;-72
2023/12/23 00:49:03;;;;;;;0.30;0.30;;;2.30;99.90;;;;;;4371593;32;20103;-71
2023/12/23 00:51:29;;;;;;;2.53;1.08;;;2.20;99.90;;;;;;4373312;32;20089;-72
2023/12/23 00:53:54;;;;;;;0.65;0.60;;;2.30;99.90;;;;;;4374098;32;20090;-71
2023/12/23 00:56:21;;;;;;;0.30;0.30;;;2.40;99.90;;;;;;4373605;32;20094;-70
2023/12/23 00:58:47;;;;;;;0.45;0.45;;;2.30;99.90;;;;;;4371317;32;20507;-71
2023/12/23 01:01:12;;;;;;;0.30;0.30;;;2.40;99.90;;;;;;4376139;32;20091;-72
2023/12/23 01:03:38;;;;;;;0.40;0.40;;;2.40;99.90;;;;;;4374224;32;20070;-71
2023/12/23 01:06:03;;;;;;;0.32;0.32;;;2.50;99.90;;;;;;4377883;32;20373;-71
2023/12/23 01:08:30;;;;;;;0.30;0.30;;;2.50;99.90;;;;;;4371700;32;20114;-72
2023/12/23 01:10:55;;;;;;;0.32;0.32;;;2.40;99.90;;;;;;4376066;32;20155;-71
2023/12/23 01:13:21;;;;;;;0.30;0.30;;;2.30;99.90;;;;;;4375429;32;20063;-71
2023/12/23 01:15:46;;;;;;;0.32;0.32;;;2.40;99.90;;;;;;4376416;32;20079;-73
2023/12/23 01:18:12;;;;;;;0.30;0.30;;;2.40;99.90;;;;;;4371723;32;20075;-71
2023/12/23 01:20:40;;;;;;;0.30;0.30;;;2.40;99.90;;;;;;4376206;32;20115;-71
2023/12/23 01:23:05;;;;;;;0.65;0.50;;;2.40;99.90;;;;;;4373225;32;20078;-72
2023/12/23 01:25:31;;;;;;;0.30;0.30;;;2.40;99.90;;;;;;4376169;32;20090;-73
2023/12/23 01:28:00;;;;;;;0.30;0.30;;;2.40;99.90;;;;;;4374181;32;20520;-72
2023/12/23 01:30:26;;;;;;;2.20;1.48;;;2.40;99.90;;;;;;4372320;32;20114;-72
2023/12/23 01:32:52;;;;;;;4.85;1.20;;;2.40;99.90;;;;;;4375148;32;20067;-72
2023/12/23 01:35:18;;;;;;;0.40;0.40;;;2.40;99.90;;;;;;4375409;32;20071;-73
2023/12/23 01:37:44;;;;;;;0.30;0.30;;;2.30;99.90;;;;;;4376633;32;20079;-71
2023/12/23 01:40:10;;;;;;;0.40;0.40;;;2.30;99.90;;;;;;4377207;32;20090;-72
2023/12/23 01:42:37;;;;;;;3.10;1.15;;;2.30;99.90;;;;;;4377623;32;20083;-70
2023/12/23 01:45:03;;;;;;;0.30;0.30;;;2.30;99.90;;;;;;4376755;32;20094;-70
2023/12/23 01:47:29;;;;;;;0.30;0.30;;;2.40;99.90;;;;;;4376478;32;20070;-71
2023/12/23 01:49:56;;;;;;;0.50;0.50;;;2.40;99.90;;;;;;4377058;32;20067;-71
2023/12/23 01:52:22;;;;;;;1.75;0.70;;;2.40;99.90;;;;;;4376892;32;20070;-71
2023/12/23 01:54:48;;;;;;;0.50;0.50;;;2.40;99.90;;;;;;4379536;32;20095;-71
2023/12/23 01:57:13;;;;;;;0.30;0.30;;;2.50;99.90;;;;;;4374367;32;20514;-73
2023/12/23 01:59:39;;;;;;;0.40;0.40;;;2.40;99.90;;;;;;4374548;32;20081;-72
2023/12/23 02:02:05;;;;;;;0.70;0.70;;;2.40;99.90;;;;;;4372613;32;20529;-72
2023/12/23 02:04:31;;;;;;;0.40;0.40;;;2.40;99.90;;;;;;4371563;32;20070;-72
2023/12/23 02:06:56;;;;;;;0.30;0.30;;;2.40;99.90;;;;;;4373851;32;20132;-72
2023/12/23 02:09:22;;;;;;;0.32;0.32;;;2.40;99.90;;;;;;4372385;32;20091;-73
2023/12/23 02:12:02;;;;;;;0.30;0.30;;;2.40;99.90;;;;;;4375070;32;20078;-71
2023/12/23 02:14:40;;;;;;;0.30;0.30;;;2.40;99.90;;;;;;4372850;32;20087;-72
2023/12/23 02:17:05;;;;;;;0.30;0.30;;;2.40;99.90;;;;;;4373604;32;20078;-72
2023/12/23 02:19:31;;;;;;;0.40;0.40;;;2.30;99.90;;;;;;4371594;32;20091;-71
2023/12/23 02:21:56;;;;;;;0.30;0.30;;;2.30;99.90;;;;;;4373354;32;20214;-71
2023/12/23 02:24:22;;;;;;;8.98;1.85;;;2.40;99.90;;;;;;4372157;32;20422;-72
2023/12/23 02:26:53;;;;;;;0.30;0.30;;;2.50;99.90;;;;;;4376159;32;20078;-71
2023/12/23 02:29:20;;;;;;;0.45;0.45;;;2.50;99.90;;;;;;4373143;32;20626;-72
2023/12/23 02:31:49;;;;;;;0.37;0.37;;;2.50;99.90;;;;;;4374673;32;20138;-72
2023/12/23 02:34:19;;;;;;;0.30;0.30;;;2.50;99.90;;;;;;4376088;32;20086;-73
2023/12/23 02:36:45;;;;;;;;;;;2.50;99.90;;;;;;4374369;32;20090;-72
2023/12/23 02:39:10;;;;;;;0.40;0.40;;;2.50;99.90;;;;;;4375882;32;19966;-72
2023/12/23 02:41:36;;;;;;;0.30;0.30;;;2.50;99.90;;;;;;4373877;32;20525;-71
2023/12/23 02:44:01;;;;;;;0.60;0.60;;;2.50;99.90;;;;;;4378516;32;20427;-72
2023/12/23 02:46:26;;;;;;;0.30;0.30;;;2.60;99.90;;;;;;4375483;32;20054;-73
2023/12/23 02:48:52;;;;;;;2.70;0.80;;;2.60;99.90;;;;;;4373691;32;20522;-74
2023/12/23 02:51:17;;;;;;;0.30;0.30;;;2.60;99.90;;;;;;4375909;32;20114;-73
2023/12/23 02:53:43;;;;;;;0.30;0.30;;;2.50;99.90;;;;;;4374833;32;20082;-74
2023/12/23 02:56:08;;;;;;;0.30;0.30;;;2.50;99.90;;;;;;4373852;32;20055;-73
2023/12/23 02:58:34;;;;;;;0.37;0.37;;;2.50;99.90;;;;;;4374127;32;20146;-73
2023/12/23 03:00:59;;;;;;;0.30;0.30;;;2.50;99.90;;;;;;4373326;32;20518;-73
2023/12/23 03:03:25;;;;;;;0.40;0.40;;;2.40;99.90;;;;;;4378218;32;20134;-74
2023/12/23 03:05:52;;;;;;;0.32;0.32;;;2.40;99.90;;;;;;4373990;32;20074;-72
2023/12/23 03:08:19;;;;;;;0.40;0.40;;;2.40;99.90;;;;;;4375645;32;20102;-72
2023/12/23 03:10:44;;;;;;;0.30;0.30;;;2.40;99.90;;;;;;4373382;32;20690;-72
2023/12/23 03:13:11;;;;;;;0.30;0.30;;;2.30;99.90;;;;;;4375939;32;20070;-73
2023/12/23 03:15:36;;;;;;;0.35;0.35;;;2.30;99.90;;;;;;4375672;32;20077;-72
2023/12/23 03:18:02;;;;;;;0.30;0.30;;;2.30;99.90;;;;;;4375666;32;20416;-71
2023/12/23 03:20:28;;;;;;;0.30;0.30;;;2.30;99.90;;;;;;4374116;32;20565;-72
2023/12/23 03:22:54;;;;;;;0.30;0.30;;;2.30;99.90;;;;;;4375563;32;20063;-72
2023/12/23 03:25:19;;;;;;;0.30;0.30;;;2.30;99.90;;;;;;4373855;32;20094;-73
2023/12/23 03:27:44;;;;;;;0.30;0.30;;;2.30;99.90;;;;;;4377893;32;20458;-73
2023/12/23 03:30:11;;;;;;;0.30;0.30;;;2.30;99.90;;;;;;4374386;32;20094;-73
2023/12/23 03:32:36;;;;;;;0.40;0.40;;;2.30;99.90;;;;;;4375821;32;20085;-72
2023/12/23 03:35:02;;;;;;;0.30;0.30;;;2.30;99.90;;;;;;4370167;32;20113;-73
2023/12/23 03:37:27;;;;;;;0.57;0.57;;;2.30;99.90;;;;;;4374063;32;20079;-73
2023/12/23 03:39:53;;;;;;;0.40;0.40;;;2.40;99.90;;;;;;4373611;32;20348;-72
2023/12/23 03:42:18;;;;;;;0.35;0.35;;;2.40;99.90;;;;;;4372303;32;20217;-72
2023/12/23 03:44:44;;;;;;;0.52;0.45;;;2.40;99.90;;;;;;4375621;32;20091;-72
2023/12/23 03:47:09;;;;;;;0.40;0.40;;;2.50;99.90;;;;;;4374905;32;20082;-72
2023/12/23 03:49:35;;;;;;;0.30;0.30;;;2.40;99.90;;;;;;4374395;32;20538;-73
2023/12/23 03:52:00;;;;;;;0.30;0.30;;;2.40;99.90;;;;;;4373487;32;20116;-72
2023/12/23 03:54:26;;;;;;;0.30;0.30;;;2.40;99.90;;;;;;4372464;32;20505;-73
2023/12/23 03:56:51;;;;;;;0.30;0.30;;;2.50;99.90;;;;;;4374333;32;20079;-73
2023/12/23 03:59:17;;;;;;;1.37;0.60;;;2.40;99.90;;;;;;4375220;32;20070;-73
2023/12/23 04:04:09;;;;;;;0.88;0.50;;;2.50;99.90;;;;;;4374955;32;20082;-73
2023/12/23 04:06:35;;;;;;;0.40;0.40;;;2.50;99.90;;;;;;4375987;32;20113;-73
2023/12/23 04:09:00;;;;;;;0.30;0.30;;;2.50;99.90;;;;;;4374307;32;21047;-73
2023/12/23 04:11:26;;;;;;;0.70;0.70;;;2.50;99.90;;;;;;4374694;32;20070;-74
2023/12/23 04:13:51;;;;;;;0.30;0.30;;;2.50;99.90;;;;;;4373603;32;20121;-74
2023/12/23 04:16:17;;;;;;;0.30;0.30;;;2.50;99.90;;;;;;4372598;32;20063;-73
2023/12/23 04:18:42;;;;;;;0.40;0.40;;;2.60;99.90;;;;;;4374275;32;20593;-74
2023/12/23 04:21:09;;;;;;;0.40;0.40;;;2.60;99.90;;;;;;4372413;32;20545;-74
2023/12/23 04:23:36;;;;;;;5.68;2.22;;;2.60;99.90;;;;;;4375161;32;20082;-73
2023/12/23 04:26:02;;;;;;;0.40;0.40;;;2.60;99.90;;;;;;4371756;32;20098;-73
2023/12/23 04:28:27;;;;;;;0.40;0.40;;;2.60;99.90;;;;;;4373913;32;20089;-73
2023/12/23 04:30:55;;;;;;;1.75;1.00;;;2.60;99.90;;;;;;4367178;32;20122;-73
2023/12/23 04:33:21;;;;;;;15.10;1.50;;;2.60;99.90;;;;;;4369523;32;20087;-73
2023/12/23 04:35:47;;;;;;;0.30;0.30;;;2.70;99.90;;;;;;4368665;32;20175;-73
2023/12/23 04:38:14;;;;;;;0.40;0.40;;;2.70;99.90;;;;;;4368133;32;20174;-73
2023/12/23 04:40:39;;;;;;;0.37;0.37;;;2.60;99.90;;;;;;4367356;32;20585;-73
2023/12/23 04:43:05;;;;;;;3.00;1.30;;;2.70;99.90;;;;;;4368055;32;20144;-73
2023/12/23 04:45:30;;;;;;;0.70;0.70;;;2.80;99.90;;;;;;4371054;32;20494;-73
2023/12/23 04:47:56;;;;;;;0.40;0.40;;;2.70;99.90;;;;;;4371289;32;20070;-73
2023/12/23 04:50:22;;;;;;;1.55;1.20;;;2.70;99.90;;;;;;4368545;32;20075;-73
2023/12/23 04:52:48;;;;;;;0.45;0.45;;;2.80;99.90;;;;;;4369937;32;20078;-73
2023/12/23 04:55:14;;;;;;;0.40;0.40;;;2.70;99.90;;;;;;4368245;32;20577;-73
2023/12/23 04:57:40;;;;;;;1.12;0.90;;;2.80;99.90;;;;;;4369438;32;20071;-74
2023/12/23 05:00:06;;;;;;;0.73;0.73;;;2.80;99.90;;;;;;4367984;32;20082;-73
2023/12/23 05:02:32;;;;;;;0.45;0.45;;;2.80;99.90;;;;;;4370706;32;20129;-74
2023/12/23 05:04:58;;;;;;;0.40;0.40;;;2.80;99.90;;;;;;4369406;32;20070;-73
2023/12/23 05:07:24;;;;;;;0.47;0.47;;;2.80;99.90;;;;;;4369956;32;20070;-73
2023/12/23 05:09:49;;;;;;;2.58;1.90;;;2.80;99.90;;;;;;4366516;32;20090;-73
2023/12/23 05:12:15;;;;;;;0.35;0.35;;;2.90;99.90;;;;;;4368704;32;20419;-73
2023/12/23 05:14:41;;;;;;;0.35;0.35;;;2.80;99.90;;;;;;4369729;32;20540;-73
2023/12/23 05:17:06;;;;;;;5.35;2.70;;;2.80;99.90;;;;;;4369253;32;20137;-73
2023/12/23 05:19:33;;;;;;;9.60;1.35;;;2.80;99.90;;;;;;4370219;32;20601;-73
2023/12/23 05:21:58;;;;;;;0.30;0.30;;;2.90;99.90;;;;;;4367548;32;20085;-73
2023/12/23 05:24:24;;;;;;;0.50;0.50;;;2.80;99.90;;;;;;4369797;32;20444;-73
2023/12/23 05:26:49;;;;;;;1.42;1.33;;;2.90;99.90;;;;;;4368817;32;20126;-73
2023/12/23 05:29:15;;;;;;;4.47;2.12;;;2.80;99.90;;;;;;4368180;32;20088;-73
2023/12/23 05:31:41;;;;;;;0.40;0.40;;;2.90;99.90;;;;;;4370565;32;20065;-73
2023/12/23 05:34:08;;;;;;;0.32;0.32;;;2.90;99.90;;;;;;4375747;32;20614;-73
2023/12/23 05:36:33;;;;;;;0.75;0.75;;;3.00;99.90;;;;;;4372921;32;20070;-73
2023/12/23 05:38:59;;;;;;;0.32;0.32;;;3.00;99.90;;;;;;4373278;32;20130;-73
2023/12/23 05:41:25;;;;;;;0.60;0.60;;;3.00;99.90;;;;;;4372237;32;20541;-73
2023/12/23 05:43:50;;;;;;;1.65;1.55;;;3.00;99.90;;;;;;4370459;32;20440;-73
2023/12/23 05:46:16;;;;;;;4.03;2.20;;;3.00;99.90;;;;;;4372094;32;20102;-73
2023/12/23 05:48:43;;;;;;;0.40;0.40;;;3.10;99.90;;;;;;4372225;32;20070;-74
2023/12/23 05:51:10;;;;;;;6.00;1.65;;;3.10;99.90;;;;;;4371864;32;20079;-73
2023/12/23 05:53:36;;;;;;;0.40;0.40;;;3.10;99.90;;;;;;4371149;32;20082;-73
2023/12/23 05:56:04;;;;;;;1.37;0.75;;;3.10;99.90;;;;;;4373904;32;20067;-73
2023/12/23 05:58:30;;;;;;;0.30;0.30;;;3.10;99.90;;;;;;4373143;32;20078;-73
2023/12/23 06:00:56;;;;;;;1.37;0.88;;;3.10;99.90;;;;;;4375261;32;20083;-73
2023/12/23 06:03:21;;;;;;;0.30;0.30;;;3.20;99.90;;;;;;4374595;32;20510;-72
2023/12/23 06:05:48;;;;;;;0.30;0.30;;;3.20;99.90;;;;;;4375533;32;20486;-73
2023/12/23 06:08:13;;;;;;;0.30;0.30;;;3.20;99.90;;;;;;4377382;32;20226;-73
2023/12/23 06:10:39;;;;;;;11.27;1.23;;;3.10;99.90;;;;;;4375428;32;20133;-73
2023/12/23 06:13:04;;;;;;;0.37;0.37;;;3.10;99.90;;;;;;4373051;32;20063;-72
2023/12/23 06:15:31;;;;;;;0.30;0.30;;;3.10;99.90;;;;;;4376305;32;20071;-71
2023/12/23 06:17:56;;;;;;;0.30;0.30;;;3.00;99.90;;;;;;4375185;32;20185;-70
2023/12/23 06:20:22;;;;;;;0.30;0.30;;;2.90;99.90;;;;;;4376897;32;20129;-71
2023/12/23 06:22:47;;;;;;;0.25;0.25;;;2.90;99.90;;;;;;4375919;32;20067;-72
2023/12/23 06:25:13;;;;;;;0.30;0.30;;;2.90;99.90;;;;;;4376610;32;20126;-72
2023/12/23 06:27:39;;;;;;;0.60;0.60;;;3.00;99.90;;;;;;4374851;32;20066;-72
2023/12/23 06:30:04;;;;;;;1.17;0.82;;;2.90;99.90;;;;;;4376540;32;20125;-71
2023/12/23 06:32:30;;;;;;;2.62;1.62;;;2.90;99.90;;;;;;4375448;32;20173;-71
2023/12/23 06:34:55;;;;;;;0.30;0.30;;;2.90;99.90;;;;;;4375046;32;20361;-72
2023/12/23 06:37:21;;;;;;;0.50;0.50;;;2.90;99.90;;;;;;4373634;32;20598;-72
2023/12/23 06:39:46;;;;;;;0.57;0.57;;;2.90;99.90;;;;;;4377321;32;20074;-71
2023/12/23 06:42:12;;;;;;;0.30;0.30;;;2.90;99.90;;;;;;4374183;32;20094;-72
2023/12/23 06:44:37;;;;;;;0.30;0.30;;;2.90;99.90;;;;;;4377537;32;20066;-71
2023/12/23 06:47:03;;;;;;;0.77;0.77;;;2.90;99.90;;;;;;4374371;32;20424;-72
2023/12/23 06:49:28;;;;;;;1.85;1.50;;;2.90;99.90;;;;;;4377343;32;20122;-72
2023/12/23 06:51:54;;;;;;;0.40;0.40;;;2.90;99.90;;;;;;4375151;32;20074;-73
2023/12/23 06:54:19;;;;;;;0.35;0.35;;;2.90;99.90;;;;;;4375704;32;20087;-72
2023/12/23 06:56:46;;;;;;;0.40;0.40;;;2.90;99.90;;;;;;4373012;32;20077;-71
2023/12/23 06:59:12;;;;;;;5.47;1.75;;;3.00;99.90;;;;;;4376583;32;20118;-72
2023/12/23 07:01:39;;;;;;;0.30;0.30;;;3.00;99.90;;;;;;4372553;32;20074;-72
2023/12/23 07:04:06;;;;;;;0.30;0.30;;;3.10;99.90;;;;;;4375409;32;20138;-73
2023/12/23 07:06:32;;;;;;;0.40;0.40;;;3.10;99.90;;;;;;4374736;32;21069;-73
2023/12/23 07:08:58;;;;;;;0.65;0.65;;;3.10;99.90;;;;;;4374747;32;20074;-72
2023/12/23 07:11:24;;;;;;;0.30;0.30;;;3.10;99.90;;;;;;4375677;32;20077;-72
2023/12/23 07:13:51;;;;;;;0.45;0.45;;;3.10;99.90;;;;;;4374011;32;20114;-72
2023/12/23 07:16:16;;;;;;;0.60;0.60;;;3.00;99.90;;;;;;4375187;32;20129;-73
2023/12/23 07:18:43;;;;;;;0.98;0.98;;;2.90;99.90;;;;;;4373868;32;20592;-72
2023/12/23 07:21:09;;;;;;;0.52;0.52;;;2.90;99.90;;;;;;4374761;32;20075;-73
2023/12/23 07:23:36;;;;;;;0.40;0.40;;;2.90;99.90;;;;;;4371836;32;20146;-72
2023/12/23 07:26:02;;;;;;;2.92;1.50;;;2.90;99.90;;;;;;4374656;32;20090;-74
2023/12/23 07:28:28;;;;;;;0.30;0.30;;;3.00;99.90;;;;;;4372790;32;20473;-74
2023/12/23 07:30:54;;;;;;;0.40;0.40;;;3.00;99.90;;;;;;4371784;32;20149;-74
2023/12/23 07:33:20;;;;;;;0.37;0.37;;;2.90;99.90;;;;;;4373763;32;20486;-74
2023/12/23 07:35:46;;;;;;;0.30;0.30;;;2.90;99.90;;;;;;4373574;32;20140;-74
2023/12/23 07:38:12;;;;;;;0.45;0.45;;;2.80;99.90;;;;;;4374990;32;20132;-74
2023/12/23 07:40:38;;;;;;;0.40;0.40;;;2.80;99.90;;;;;;4377657;32;20087;-74
2023/12/23 07:43:04;;;;;;;0.30;0.30;;;2.70;99.90;;;;;;4374523;32;20150;-74
2023/12/23 07:45:29;;;;;;;0.65;0.65;;;2.70;99.90;;;;;;4378083;32;20114;-72
2023/12/23 07:47:55;;;;;;;0.70;0.70;;;2.60;99.90;;;;;;4382134;32;20054;-72
2023/12/23 07:50:21;;;;;;;0.30;0.30;;;2.60;99.90;;;;;;4380193;32;20077;-72
2023/12/23 07:52:46;;;;;;;0.50;0.50;;;2.60;99.90;;;;;;4380238;32;20078;-71
2023/12/23 07:55:12;;;;;;;0.30;0.30;;;2.60;99.90;;;;;;4378433;32;20077;-72
2023/12/23 07:57:37;;;;;;;0.40;0.40;;;2.60;99.90;;;;;;4377069;32;20117;-70
2023/12/23 08:00:03;;;;;;;0.32;0.32;;;2.60;99.90;;;;;;4377874;32;20082;-71
2023/12/23 08:02:28;;;;;;;0.30;0.30;;;2.70;99.90;;;;;;4377936;32;20587;-71
2023/12/23 08:04:55;;;;;;;1.65;1.00;;;2.70;99.90;;;;;;4377994;32;20082;-71
2023/12/23 08:07:20;;;;;;;0.30;0.30;;;2.70;99.90;;;;;;4378442;32;20074;-71
2023/12/23 08:09:45;;;;;;;0.73;0.73;;;2.80;99.90;;;;;;4377590;32;20090;-70
2023/12/23 08:12:11;;;;;;;0.40;0.40;;;2.80;99.90;;;;;;4378834;32;20113;-71
2023/12/23 08:14:37;;;;;;;0.30;0.30;;;2.80;99.90;;;;;;4378702;32;20082;-71
2023/12/23 08:17:03;;;;;;;0.30;0.30;;;2.90;99.90;;;;;;4380740;32;20065;-71
2023/12/23 08:19:28;;;;;;;0.30;0.30;;;2.90;99.90;;;;;;4379513;32;20083;-70
2023/12/23 08:21:54;;;;;;;0.30;0.30;;;2.90;99.90;;;;;;4379341;32;20094;-72
2023/12/23 08:24:20;;;;;;;0.40;0.40;;;2.90;99.90;;;;;;4377881;32;20078;-71
2023/12/23 08:26:46;;;;;;;0.37;0.37;;;2.90;99.90;;;;;;4375326;32;20099;-70
2023/12/23 08:29:13;;;;;;;0.40;0.40;;;2.80;99.90;;;;;;4378760;32;21388;-72
2023/12/23 08:31:44;;;;;;;0.30;0.30;;;2.90;99.90;;;;;;4377340;32;20095;-70
2023/12/23 08:34:11;;;;;;;0.40;0.40;;;2.90;99.90;;;;;;4377010;32;20070;-71
2023/12/23 08:36:36;;;;;;;2.28;1.12;;;3.00;99.90;;;;;;4372532;32;20131;-73
2023/12/23 08:39:02;;;;;;;0.35;0.35;;;2.90;99.90;;;;;;4373867;32;20102;-73
2023/12/23 08:41:27;;;;;;;0.77;0.77;;;2.90;99.90;;;;;;4371977;32;20083;-75
2023/12/23 08:43:53;;;;;;;0.30;0.30;;;2.80;99.90;;;;;;4374651;32;20087;-74
2023/12/23 08:46:18;;;;;;;0.37;0.37;;;2.90;99.90;;;;;;4371049;32;20078;-74
2023/12/23 08:48:44;;;;;;;0.55;0.50;;;2.90;99.90;;;;;;4373793;32;20070;-73
2023/12/23 08:51:10;;;;;;;0.30;0.30;;;2.90;99.90;;;;;;4373093;32;20533;-73
2023/12/23 08:53:36;;;;;;;0.30;0.30;;;2.90;99.90;;;;;;4373467;32;20074;-73
2023/12/23 08:56:01;;;;;;;0.60;0.60;;;2.90;99.90;;;;;;4371274;32;20091;-73
2023/12/23 08:58:27;;;;;;;0.60;0.60;;;2.90;99.90;;;;;;4372579;32;20410;-74
2023/12/23 09:00:53;;;;;;;0.32;0.32;;;2.90;99.90;;;;;;4371501;32;20078;-74
2023/12/23 09:03:19;;;;;;;0.30;0.30;;;2.90;99.90;;;;;;4373224;32;20560;-73
2023/12/23 09:05:44;;;;;;;0.30;0.30;;;3.00;99.90;;;;;;4373584;32;20112;-73
2023/12/23 09:08:12;;;;;;;4.20;2.08;;;3.10;99.90;;;;;;4372309;32;20090;-73
2023/12/23 09:10:37;;;;;;;0.45;0.45;;;3.10;99.90;;;;;;4372856;32;20534;-73
2023/12/23 09:13:04;;;;;;;0.30;0.30;;;3.00;99.90;;;;;;4374973;32;20074;-74
2023/12/23 09:15:29;;;;;;;0.68;0.68;;;3.00;99.90;;;;;;4372627;32;20141;-74
2023/12/23 09:17:55;;;;;;;0.50;0.50;;;3.20;99.90;;;;;;4378833;32;20087;-74
2023/12/23 09:20:20;;;;;;;0.30;0.30;;;3.20;99.90;;;;;;4371957;32;20087;-73
2023/12/23 09:22:46;;;;;;;0.25;0.25;;;3.20;99.90;;;;;;4373416;32;20082;-74
2023/12/23 09:25:11;;;;;;;0.57;0.57;;;3.20;99.90;;;;;;4373778;32;20078;-73
2023/12/23 09:27:37;;;;;;;0.30;0.30;;;3.20;99.90;;;;;;4373899;32;20070;-73
2023/12/23 09:30:04;;;;;;;0.30;0.30;;;3.20;99.90;;;;;;4372447;32;20070;-74
2023/12/23 09:32:29;;;;;;;9.75;1.65;;;3.10;99.90;;;;;;4367323;32;20074;-74
2023/12/23 09:34:55;;;;;;;0.73;0.60;;;3.10;99.90;;;;;;4374915;32;20086;-73
2023/12/23 09:37:21;;;;;;;0.30;0.30;;;3.00;99.90;;;;;;4376680;32;20082;-72
2023/12/23 09:39:47;;;;;;;0.30;0.30;;;3.00;99.90;;;;;;4377464;32;20090;-74
2023/12/23 09:42:12;;;;;;;8.07;0.80;;;2.90;99.90;;;;;;4372652;32;20063;-73
2023/12/23 09:44:38;;;;;;;0.30;0.30;;;3.00;99.90;;;;;;4375618;32;20074;-73
2023/12/23 09:47:05;;;;;;;0.40;0.40;;;2.90;99.90;;;;;;4373288;32;20518;-74
2023/12/23 09:49:31;;;;;;;0.37;0.37;;;2.90;99.90;;;;;;4371681;32;20083;-74
2023/12/23 09:51:58;;;;;;;0.30;0.30;;;2.90;99.90;;;;;;4377985;32;20785;-73
2023/12/23 09:54:26;;;;;;;0.30;0.30;;;2.90;99.90;;;;;;4374766;32;20074;-73
2023/12/23 09:56:52;;;;;;;0.32;0.32;;;2.80;99.90;;;;;;4373259;32;20078;-74
2023/12/23 09:59:19;;;;;;;0.35;0.35;;;2.80;99.90;;;;;;4372967;32;20130;-73
2023/12/23 10:01:45;;;;;;;4.78;1.58;;;2.70;99.90;;;;;;4374080;32;20067;-73
2023/12/23 10:04:11;;;;;;;0.37;0.37;;;2.60;99.90;;;;;;4374248;32;20082;-73
2023/12/23 10:06:37;;;;;;;0.30;0.30;;;2.60;99.90;;;;;;4374614;32;20078;-74
2023/12/23 10:09:03;;;;;;;0.30;0.30;;;2.50;99.90;;;;;;4377444;32;20502;-74
2023/12/23 10:11:29;;;;;;;0.55;0.55;;;2.40;99.90;;;;;;4374785;32;20148;-74
2023/12/23 10:13:57;;;;;;;0.30;0.30;;;2.30;99.90;;;;;;4375300;32;20538;-73
2023/12/23 10:16:22;;;;;;;0.50;0.50;;;2.40;99.90;;;;;;4376156;32;20479;-73
2023/12/23 10:18:48;;;;;;;0.37;0.37;;;2.30;99.90;;;;;;4374332;32;20126;-73
2023/12/23 10:21:14;;;;;;;0.30;0.30;;;2.30;99.90;;;;;;4376376;32;20080;-73
2023/12/23 10:23:39;;;;;;;0.30;0.30;;;2.30;99.90;;;;;;4378627;32;20075;-73
2023/12/23 10:26:05;;;;;;;0.50;0.50;;;2.20;99.90;;;;;;4377149;32;20513;-73
2023/12/23 10:28:34;;;;;;;0.40;0.40;;;2.30;99.90;;;;;;4373797;32;20078;-74
2023/12/23 10:31:01;;;;;;;0.30;0.30;;;2.20;99.90;;;;;;4367447;32;20146;-74
2023/12/23 10:33:32;;;;;;;0.30;0.30;;;2.30;99.90;;;;;;4371104;32;20167;-74
2023/12/23 10:35:59;;;;;;;0.40;0.40;;;2.40;99.90;;;;;;4367870;32;20086;-72
2023/12/23 10:38:26;;;;;;;0.30;0.30;;;2.30;99.90;;;;;;4368146;32;20550;-72
2023/12/23 10:41:11;;;;;;;0.30;0.30;;;2.30;99.90;;;;;;4371114;32;20098;-72
2023/12/23 10:43:37;;;;;;;0.30;0.30;;;2.30;99.90;;;;;;4370709;32;20465;-73
2023/12/23 10:46:06;;;;;;;2.90;1.20;;;2.20;99.90;;;;;;4373808;32;20069;-72
2023/12/23 10:48:33;;;;;;;0.30;0.30;;;2.10;99.90;;;;;;4369948;32;20082;-72
2023/12/23 10:51:01;;;;;;;0.30;0.30;;;2.20;99.90;;;;;;4369430;32;20071;-72
2023/12/23 10:53:28;;;;;;;0.30;0.30;;;2.20;99.90;;;;;;4369562;32;20099;-72
2023/12/23 10:55:55;;;;;;;0.30;0.30;;;2.20;99.90;;;;;;4369137;32;20067;-74
2023/12/23 10:58:21;;;;;;;0.37;0.37;;;2.20;99.90;;;;;;4370123;32;20070;-73
2023/12/23 11:00:48;;;;;;;0.30;0.30;;;2.20;99.90;;;;;;4370612;32;20444;-73
2023/12/23 11:03:14;;;;;;;0.40;0.40;;;2.20;99.90;;;;;;4368656;32;21181;-74
2023/12/23 11:05:42;;;;;;;0.30;0.30;;;2.30;99.90;;;;;;4371665;32;20094;-73
2023/12/23 11:08:12;;;;;;;0.30;0.30;;;2.20;99.90;;;;;;4370713;32;20069;-73
2023/12/23 11:10:39;;;;;;;;;;;2.30;99.90;;;;;;4368030;32;20079;-72
2023/12/23 11:13:07;;;;;;;0.30;0.30;;;2.40;99.90;;;;;;4370691;32;20005;-73
2023/12/23 11:15:32;;;;;;;0.40;0.40;;;2.30;99.90;;;;;;4370445;32;20103;-73
2023/12/23 11:17:58;;;;;;;0.50;0.50;;;2.40;99.90;;;;;;4377661;32;20062;-69
2023/12/23 11:20:44;;;;;;;0.40;0.40;;;2.50;99.90;;;;;;4377093;32;21284;-71
2023/12/23 11:23:32;;;;;;;0.47;0.45;;;2.50;99.90;;;;;;4391001;32;20149;-71
2023/12/23 11:25:58;;;;;;;0.30;0.30;;;2.50;99.90;;;;;;4392304;32;20136;-69
2023/12/23 11:28:26;;;;;;;0.28;0.28;;;2.50;99.90;;;;;;4382194;32;20110;-70
2023/12/23 11:30:55;;;;;;;0.30;0.30;;;2.50;99.90;;;;;;4378705;32;20062;-70
2023/12/23 11:33:22;;;;;;;0.52;0.52;;;2.60;99.90;;;;;;4379936;32;20187;-70
2023/12/23 11:35:50;;;;;;;0.40;0.40;;;2.70;99.90;;;;;;4378299;32;20075;-70
2023/12/23 11:38:16;;;;;;;0.40;0.40;;;2.70;99.90;;;;;;4380220;32;20074;-70
2023/12/23 11:40:42;;;;;;;0.30;0.30;;;2.70;99.90;;;;;;4380372;32;20074;-69
2023/12/23 11:43:07;;;;;;;0.30;0.30;;;2.70;99.90;;;;;;4379180;32;20137;-72
2023/12/23 11:45:33;;;;;;;0.30;0.30;;;2.70;99.90;;;;;;4380505;32;20070;-71
2023/12/23 11:47:59;;;;;;;0.30;0.30;;;2.70;99.90;;;;;;4379622;32;20087;-71
2023/12/23 11:50:24;;;;;;;0.30;0.30;;;2.70;99.90;;;;;;4378294;32;87082;-71
2023/12/23 11:52:50;;;;;;;0.40;0.40;;;2.70;99.90;;;;;;4380767;32;20121;-70
2023/12/23 11:55:16;;;;;;;0.30;0.30;;;2.60;99.90;;;;;;4377180;32;21396;-72
2023/12/23 11:57:43;;;;;;;0.25;0.25;;;2.60;99.90;;;;;;4382209;32;20102;-70
2023/12/23 12:02:35;;;;;;;0.30;0.30;;;2.50;99.90;;;;;;4382472;32;20074;-72
2023/12/23 12:05:01;;;;;;;0.98;0.73;;;2.60;99.90;;;;;;4377968;32;20126;-72
2023/12/23 12:07:28;;;;;;;0.40;0.40;;;2.60;99.90;;;;;;4377385;32;20121;-71
2023/12/23 12:09:54;;;;;;;0.30;0.30;;;2.60;99.90;;;;;;4376354;32;20078;-70
2023/12/23 12:12:20;;;;;;;1.00;0.82;;;2.40;99.90;;;;;;4377196;32;20067;-72
2023/12/23 12:14:45;;;;;;;0.65;0.60;;;2.50;99.90;;;;;;4379396;32;20134;-72
2023/12/23 12:17:11;;;;;;;0.30;0.30;;;2.50;99.90;;;;;;4381173;32;20091;-71
2023/12/23 12:19:36;;;;;;;0.30;0.30;;;2.40;99.90;;;;;;4379971;32;20051;-70
2023/12/23 12:22:03;;;;;;;0.43;0.43;;;2.40;99.90;;;;;;4380094;32;20110;-71
2023/12/23 12:24:29;;;;;;;0.40;0.40;;;2.40;99.90;;;;;;4380173;32;20091;-70
2023/12/23 12:26:57;;;;;;;0.30;0.30;;;2.40;99.90;;;;;;4378473;32;20074;-73
2023/12/23 12:29:23;;;;;;;0.32;0.32;;;2.50;99.90;;;;;;4368503;32;20464;-73
2023/12/23 12:31:50;;;;;;;0.30;0.30;;;2.50;99.90;;;;;;4368868;32;20087;-73
2023/12/23 12:34:16;;;;;;;0.40;0.40;;;2.60;99.90;;;;;;4366289;32;20189;-73
2023/12/23 12:36:41;;;;;;;0.30;0.30;;;2.60;99.90;;;;;;4365584;32;20067;-74
2023/12/23 12:39:07;;;;;;;0.30;0.30;;;2.60;99.90;;;;;;4368427;32;20125;-74
2023/12/23 12:41:37;;;;;;;0.30;0.30;;;2.60;99.90;;;;;;4368225;32;20122;-73
2023/12/23 12:44:04;;;;;;;0.80;0.80;;;2.60;99.90;;;;;;4368736;32;20082;-74
2023/12/23 12:46:32;;;;;;;0.32;0.32;;;2.70;99.90;;;;;;4372246;32;20090;-73
2023/12/23 12:48:59;;;;;;;0.65;0.65;;;2.70;99.90;;;;;;4369458;32;20086;-74
2023/12/23 12:51:25;;;;;;;0.25;0.25;;;2.60;99.90;;;;;;4369595;32;20122;-73
2023/12/23 12:53:51;;;;;;;0.30;0.30;;;2.60;99.90;;;;;;4369176;32;20137;-73
2023/12/23 12:56:20;;;;;;;0.40;0.40;;;2.60;99.90;;;;;;4367861;32;20090;-73